sensor_id;sensor_type;location;lat;lon;timestamp;pressure;altitude;pressure_sealevel;temperature;humidity
68077;BME280;54866;53.458;14.540;2023-05-15T00:00:25;100400.47;;;13.21;66.60
68077;BME280;54866;53.458;14.540;2023-05-15T00:02:55;100401.41;;;13.18;66.65
68077;BME280;54866;53.458;14.540;2023-05-15T00:05:24;100400.37;;;13.16;66.95
68077;BME280;54866;53.458;14.540;2023-05-15T00:07:54;100392.20;;;13.12;67.02
68077;BME280;54866;53.458;14.540;2023-05-15T00:10:24;100390.40;;;13.09;67.29
68077;BME280;54866;53.458;14.540;2023-05-15T00:12:53;100383.52;;;13.05;67.60
68077;BME280;54866;53.458;14.540;2023-05-15T00:15:23;100382.63;;;13.02;67.88
68077;BME280;54866;53.458;14.540;2023-05-15T00:17:53;100380.27;;;12.94;67.94
68077;BME280;54866;53.458;14.540;2023-05-15T00:20:22;100376.28;;;12.90;68.00
68077;BME280;54866;53.458;14.540;2023-05-15T00:22:52;100376.69;;;12.85;68.47
68077;BME280;54866;53.458;14.540;2023-05-15T00:25:22;100373.06;;;12.83;68.62
68077;BME280;54866;53.458;14.540;2023-05-15T00:27:51;100374.23;;;12.80;68.68
68077;BME280;54866;53.458;14.540;2023-05-15T00:30:21;100371.61;;;12.76;68.95
68077;BME280;54866;53.458;14.540;2023-05-15T00:32:50;100369.73;;;12.71;68.94
68077;BME280;54866;53.458;14.540;2023-05-15T00:35:20;100366.61;;;12.69;68.93
68077;BME280;54866;53.458;14.540;2023-05-15T00:37:50;100360.45;;;12.66;69.35
68077;BME280;54866;53.458;14.540;2023-05-15T00:40:22;100359.22;;;12.64;69.46
68077;BME280;54866;53.458;14.540;2023-05-15T00:42:52;100359.61;;;12.62;69.57
68077;BME280;54866;53.458;14.540;2023-05-15T00:45:23;100361.64;;;12.59;69.61
68077;BME280;54866;53.458;14.540;2023-05-15T00:47:54;100356.73;;;12.57;69.75
68077;BME280;54866;53.458;14.540;2023-05-15T00:50:26;100355.05;;;12.56;69.61
68077;BME280;54866;53.458;14.540;2023-05-15T00:52:56;100353.61;;;12.54;70.41
68077;BME280;54866;53.458;14.540;2023-05-15T00:55:26;100353.50;;;12.54;70.33
68077;BME280;54866;53.458;14.540;2023-05-15T00:57:58;100348.52;;;12.50;70.48
68077;BME280;54866;53.458;14.540;2023-05-15T01:00:30;100346.09;;;12.47;70.58
68077;BME280;54866;53.458;14.540;2023-05-15T01:03:01;100344.84;;;12.44;70.76
68077;BME280;54866;53.458;14.540;2023-05-15T01:05:30;100340.14;;;12.41;70.83
68077;BME280;54866;53.458;14.540;2023-05-15T01:08:06;100335.48;;;12.38;71.10
68077;BME280;54866;53.458;14.540;2023-05-15T01:10:36;100334.51;;;12.35;71.31
68077;BME280;54866;53.458;14.540;2023-05-15T01:13:09;100335.23;;;12.33;71.29
68077;BME280;54866;53.458;14.540;2023-05-15T01:15:39;100332.70;;;12.32;71.35
68077;BME280;54866;53.458;14.540;2023-05-15T01:18:09;100333.96;;;12.31;71.59
68077;BME280;54866;53.458;14.540;2023-05-15T01:20:49;100331.67;;;12.29;71.78
68077;BME280;54866;53.458;14.540;2023-05-15T01:23:37;100330.05;;;12.27;71.79
68077;BME280;54866;53.458;14.540;2023-05-15T01:26:39;100327.58;;;12.24;71.78
68077;BME280;54866;53.458;14.540;2023-05-15T01:29:22;100323.46;;;12.21;71.77
68077;BME280;54866;53.458;14.540;2023-05-15T01:31:57;100323.02;;;12.18;71.86
68077;BME280;54866;53.458;14.540;2023-05-15T01:34:36;100321.00;;;12.15;72.28
68077;BME280;54866;53.458;14.540;2023-05-15T01:37:08;100315.71;;;12.13;72.17
68077;BME280;54866;53.458;14.540;2023-05-15T01:39:41;100312.13;;;12.11;72.29
68077;BME280;54866;53.458;14.540;2023-05-15T01:42:15;100305.34;;;12.10;72.10
68077;BME280;54866;53.458;14.540;2023-05-15T01:44:52;100309.05;;;12.10;72.10
68077;BME280;54866;53.458;14.540;2023-05-15T01:47:38;100307.02;;;12.09;71.78
68077;BME280;54866;53.458;14.540;2023-05-15T01:50:12;100304.35;;;12.10;71.63
68077;BME280;54866;53.458;14.540;2023-05-15T01:52:45;100302.05;;;12.11;71.36
68077;BME280;54866;53.458;14.540;2023-05-15T01:55:17;100301.42;;;12.14;70.78
68077;BME280;54866;53.458;14.540;2023-05-15T01:57:49;100295.55;;;12.17;70.70
68077;BME280;54866;53.458;14.540;2023-05-15T02:00:20;100296.38;;;12.19;70.32
68077;BME280;54866;53.458;14.540;2023-05-15T02:02:51;100294.23;;;12.22;69.94
68077;BME280;54866;53.458;14.540;2023-05-15T02:05:22;100292.44;;;12.25;69.49
68077;BME280;54866;53.458;14.540;2023-05-15T02:07:52;100292.10;;;12.31;68.99
68077;BME280;54866;53.458;14.540;2023-05-15T02:10:22;100289.55;;;12.36;68.77
68077;BME280;54866;53.458;14.540;2023-05-15T02:12:53;100287.96;;;12.42;68.51
68077;BME280;54866;53.458;14.540;2023-05-15T02:15:23;100287.31;;;12.45;68.48
68077;BME280;54866;53.458;14.540;2023-05-15T02:17:53;100297.64;;;12.44;68.88
68077;BME280;54866;53.458;14.540;2023-05-15T02:20:23;100292.71;;;12.38;69.63
68077;BME280;54866;53.458;14.540;2023-05-15T02:22:53;100291.86;;;12.26;70.17
68077;BME280;54866;53.458;14.540;2023-05-15T02:25:28;100292.11;;;12.14;70.30
68077;BME280;54866;53.458;14.540;2023-05-15T02:28:05;100288.85;;;12.03;71.25
68077;BME280;54866;53.458;14.540;2023-05-15T02:30:45;100293.55;;;11.98;71.96
68077;BME280;54866;53.458;14.540;2023-05-15T02:33:23;100291.76;;;11.92;72.67
68077;BME280;54866;53.458;14.540;2023-05-15T02:35:57;100292.35;;;11.88;73.78
68077;BME280;54866;53.458;14.540;2023-05-15T02:38:30;100289.40;;;11.84;74.79
68077;BME280;54866;53.458;14.540;2023-05-15T02:41:02;100285.41;;;11.81;76.00
68077;BME280;54866;53.458;14.540;2023-05-15T02:43:33;100279.39;;;11.79;77.31
68077;BME280;54866;53.458;14.540;2023-05-15T02:46:05;100277.73;;;11.77;77.65
68077;BME280;54866;53.458;14.540;2023-05-15T02:48:36;100271.88;;;11.77;77.72
68077;BME280;54866;53.458;14.540;2023-05-15T02:51:07;100268.94;;;11.79;77.58
68077;BME280;54866;53.458;14.540;2023-05-15T02:53:41;100260.05;;;11.83;77.54
68077;BME280;54866;53.458;14.540;2023-05-15T02:56:11;100258.27;;;11.84;77.34
68077;BME280;54866;53.458;14.540;2023-05-15T02:58:41;100254.20;;;11.87;77.28
68077;BME280;54866;53.458;14.540;2023-05-15T03:01:11;100250.21;;;11.88;76.67
68077;BME280;54866;53.458;14.540;2023-05-15T03:03:41;100250.62;;;11.91;76.49
68077;BME280;54866;53.458;14.540;2023-05-15T03:06:10;100247.38;;;11.93;76.21
68077;BME280;54866;53.458;14.540;2023-05-15T03:08:40;100246.68;;;11.95;75.98
68077;BME280;54866;53.458;14.540;2023-05-15T03:11:09;100241.96;;;11.96;75.87
68077;BME280;54866;53.458;14.540;2023-05-15T03:13:39;100238.40;;;11.97;75.38
68077;BME280;54866;53.458;14.540;2023-05-15T03:16:08;100237.82;;;11.99;75.27
68077;BME280;54866;53.458;14.540;2023-05-15T03:18:38;100236.02;;;12.02;75.12
68077;BME280;54866;53.458;14.540;2023-05-15T03:21:08;100231.64;;;12.05;74.74
68077;BME280;54866;53.458;14.540;2023-05-15T03:23:38;100234.91;;;12.10;74.53
68077;BME280;54866;53.458;14.540;2023-05-15T03:26:07;100233.02;;;12.15;74.11
68077;BME280;54866;53.458;14.540;2023-05-15T03:28:37;100226.38;;;12.22;73.39
68077;BME280;54866;53.458;14.540;2023-05-15T03:31:06;100220.64;;;12.30;72.58
68077;BME280;54866;53.458;14.540;2023-05-15T03:33:36;100217.30;;;12.40;71.81
68077;BME280;54866;53.458;14.540;2023-05-15T03:36:07;100214.89;;;12.51;70.95
68077;BME280;54866;53.458;14.540;2023-05-15T03:38:36;100214.35;;;12.60;69.87
68077;BME280;54866;53.458;14.540;2023-05-15T03:41:06;100213.27;;;12.67;69.05
68077;BME280;54866;53.458;14.540;2023-05-15T03:43:35;100213.20;;;12.76;68.06
68077;BME280;54866;53.458;14.540;2023-05-15T03:46:05;100209.98;;;12.85;66.64
68077;BME280;54866;53.458;14.540;2023-05-15T03:48:35;100208.52;;;12.95;66.46
68077;BME280;54866;53.458;14.540;2023-05-15T03:51:04;100212.02;;;13.03;67.72
68077;BME280;54866;53.458;14.540;2023-05-15T03:53:34;100210.66;;;13.10;68.21
68077;BME280;54866;53.458;14.540;2023-05-15T03:56:04;100210.08;;;13.12;68.75
68077;BME280;54866;53.458;14.540;2023-05-15T03:58:33;100211.40;;;13.15;69.37
68077;BME280;54866;53.458;14.540;2023-05-15T04:01:03;100210.98;;;13.12;70.22
68077;BME280;54866;53.458;14.540;2023-05-15T04:03:33;100209.03;;;13.10;70.58
68077;BME280;54866;53.458;14.540;2023-05-15T04:06:02;100206.14;;;13.03;71.32
68077;BME280;54866;53.458;14.540;2023-05-15T04:08:32;100206.98;;;12.94;71.59
68077;BME280;54866;53.458;14.540;2023-05-15T04:11:02;100204.37;;;12.88;71.92
68077;BME280;54866;53.458;14.540;2023-05-15T04:13:31;100206.00;;;12.86;71.93
68077;BME280;54866;53.458;14.540;2023-05-15T04:16:01;100205.34;;;12.84;71.87
68077;BME280;54866;53.458;14.540;2023-05-15T04:18:31;100207.29;;;12.84;71.19
68077;BME280;54866;53.458;14.540;2023-05-15T04:21:01;100209.80;;;12.83;70.61
68077;BME280;54866;53.458;14.540;2023-05-15T04:23:31;100209.59;;;12.84;70.28
68077;BME280;54866;53.458;14.540;2023-05-15T04:26:00;100207.89;;;12.83;70.26
68077;BME280;54866;53.458;14.540;2023-05-15T04:28:30;100209.32;;;12.83;70.18
68077;BME280;54866;53.458;14.540;2023-05-15T04:31:00;100208.17;;;12.82;69.88
68077;BME280;54866;53.458;14.540;2023-05-15T04:33:29;100205.27;;;12.83;69.64
68077;BME280;54866;53.458;14.540;2023-05-15T04:35:59;100202.32;;;12.84;69.37
68077;BME280;54866;53.458;14.540;2023-05-15T04:38:29;100198.58;;;12.86;69.73
68077;BME280;54866;53.458;14.540;2023-05-15T04:40:58;100191.28;;;12.89;69.95
68077;BME280;54866;53.458;14.540;2023-05-15T04:43:28;100185.31;;;12.92;70.27
68077;BME280;54866;53.458;14.540;2023-05-15T04:45:57;100188.31;;;12.99;70.55
68077;BME280;54866;53.458;14.540;2023-05-15T04:48:27;100191.25;;;13.09;70.45
68077;BME280;54866;53.458;14.540;2023-05-15T04:50:57;100187.67;;;13.19;70.22
68077;BME280;54866;53.458;14.540;2023-05-15T04:53:27;100186.50;;;13.27;69.90
68077;BME280;54866;53.458;14.540;2023-05-15T04:55:56;100183.94;;;13.35;69.86
68077;BME280;54866;53.458;14.540;2023-05-15T04:58:26;100187.75;;;13.40;69.96
68077;BME280;54866;53.458;14.540;2023-05-15T05:00:55;100191.66;;;13.39;69.88
68077;BME280;54866;53.458;14.540;2023-05-15T05:03:25;100188.38;;;13.40;70.13
68077;BME280;54866;53.458;14.540;2023-05-15T05:05:55;100195.15;;;13.40;70.32
68077;BME280;54866;53.458;14.540;2023-05-15T05:08:24;100201.77;;;13.39;71.18
68077;BME280;54866;53.458;14.540;2023-05-15T05:10:57;100206.20;;;13.32;73.44
68077;BME280;54866;53.458;14.540;2023-05-15T05:13:26;100212.83;;;13.20;74.45
68077;BME280;54866;53.458;14.540;2023-05-15T05:15:56;100216.55;;;13.03;75.16
68077;BME280;54866;53.458;14.540;2023-05-15T05:18:25;100220.77;;;12.91;75.86
68077;BME280;54866;53.458;14.540;2023-05-15T05:21:00;100221.31;;;12.80;76.80
68077;BME280;54866;53.458;14.540;2023-05-15T05:23:31;100217.84;;;12.68;77.62
68077;BME280;54866;53.458;14.540;2023-05-15T05:26:01;100215.96;;;12.61;78.07
68077;BME280;54866;53.458;14.540;2023-05-15T05:28:31;100215.98;;;12.58;78.11
68077;BME280;54866;53.458;14.540;2023-05-15T05:31:00;100216.72;;;12.56;78.30
68077;BME280;54866;53.458;14.540;2023-05-15T05:33:30;100216.02;;;12.55;78.23
68077;BME280;54866;53.458;14.540;2023-05-15T05:35:59;100213.13;;;12.58;78.25
68077;BME280;54866;53.458;14.540;2023-05-15T05:38:29;100211.77;;;12.63;77.75
68077;BME280;54866;53.458;14.540;2023-05-15T05:40:59;100209.30;;;12.70;77.29
68077;BME280;54866;53.458;14.540;2023-05-15T05:43:30;100209.58;;;12.82;76.97
68077;BME280;54866;53.458;14.540;2023-05-15T05:46:00;100204.30;;;12.94;76.77
68077;BME280;54866;53.458;14.540;2023-05-15T05:48:30;100199.62;;;13.05;75.59
68077;BME280;54866;53.458;14.540;2023-05-15T05:50:59;100202.80;;;13.14;74.45
68077;BME280;54866;53.458;14.540;2023-05-15T05:53:29;100202.99;;;13.23;73.94
68077;BME280;54866;53.458;14.540;2023-05-15T05:55:58;100202.80;;;13.31;72.81
68077;BME280;54866;53.458;14.540;2023-05-15T05:58:28;100198.34;;;13.36;71.12
68077;BME280;54866;53.458;14.540;2023-05-15T06:00:58;100190.55;;;13.42;69.88
68077;BME280;54866;53.458;14.540;2023-05-15T06:03:28;100192.28;;;13.46;69.96
68077;BME280;54866;53.458;14.540;2023-05-15T06:05:58;100184.37;;;13.45;70.01
68077;BME280;54866;53.458;14.540;2023-05-15T06:08:29;100182.02;;;13.44;70.12
68077;BME280;54866;53.458;14.540;2023-05-15T06:10:58;100178.27;;;13.44;70.32
68077;BME280;54866;53.458;14.540;2023-05-15T06:13:28;100173.50;;;13.46;70.68
68077;BME280;54866;53.458;14.540;2023-05-15T06:15:57;100169.84;;;13.44;70.91
68077;BME280;54866;53.458;14.540;2023-05-15T06:18:27;100161.33;;;13.45;71.10
68077;BME280;54866;53.458;14.540;2023-05-15T06:20:56;100154.98;;;13.49;71.28
68077;BME280;54866;53.458;14.540;2023-05-15T06:23:27;100149.86;;;13.52;71.92
68077;BME280;54866;53.458;14.540;2023-05-15T06:25:57;100145.51;;;13.57;71.94
68077;BME280;54866;53.458;14.540;2023-05-15T06:28:26;100140.77;;;13.64;71.90
68077;BME280;54866;53.458;14.540;2023-05-15T06:30:56;100128.09;;;13.70;72.60
68077;BME280;54866;53.458;14.540;2023-05-15T06:33:26;100123.19;;;13.75;72.93
68077;BME280;54866;53.458;14.540;2023-05-15T06:35:55;100119.27;;;13.82;73.24
68077;BME280;54866;53.458;14.540;2023-05-15T06:38:25;100115.27;;;13.90;73.14
68077;BME280;54866;53.458;14.540;2023-05-15T06:40:54;100115.81;;;13.99;73.48
68077;BME280;54866;53.458;14.540;2023-05-15T06:43:24;100116.26;;;14.08;74.15
68077;BME280;54866;53.458;14.540;2023-05-15T06:45:54;100113.27;;;14.18;74.51
68077;BME280;54866;53.458;14.540;2023-05-15T06:48:23;100103.98;;;14.29;74.51
68077;BME280;54866;53.458;14.540;2023-05-15T06:50:53;100104.23;;;14.41;75.65
68077;BME280;54866;53.458;14.540;2023-05-15T06:53:22;100099.15;;;14.54;75.76
68077;BME280;54866;53.458;14.540;2023-05-15T06:55:52;100096.42;;;14.70;74.74
68077;BME280;54866;53.458;14.540;2023-05-15T06:58:22;100089.77;;;14.92;74.25
68077;BME280;54866;53.458;14.540;2023-05-15T07:00:52;100088.52;;;15.16;73.62
68077;BME280;54866;53.458;14.540;2023-05-15T07:03:21;100092.38;;;15.42;72.71
68077;BME280;54866;53.458;14.540;2023-05-15T07:05:51;100087.48;;;15.71;72.97
68077;BME280;54866;53.458;14.540;2023-05-15T07:08:21;100079.92;;;16.01;73.35
68077;BME280;54866;53.458;14.540;2023-05-15T07:10:51;100073.44;;;16.29;72.89
68077;BME280;54866;53.458;14.540;2023-05-15T07:13:21;100074.86;;;16.59;72.61
68077;BME280;54866;53.458;14.540;2023-05-15T07:15:51;100070.91;;;16.89;72.12
68077;BME280;54866;53.458;14.540;2023-05-15T07:18:21;100056.66;;;17.15;71.29
68077;BME280;54866;53.458;14.540;2023-05-15T07:20:50;100048.30;;;17.44;70.42
68077;BME280;54866;53.458;14.540;2023-05-15T07:23:20;100041.21;;;17.75;69.63
68077;BME280;54866;53.458;14.540;2023-05-15T07:25:51;100036.24;;;18.11;68.76
68077;BME280;54866;53.458;14.540;2023-05-15T07:28:20;100032.02;;;18.50;67.06
68077;BME280;54866;53.458;14.540;2023-05-15T07:30:50;100027.73;;;18.86;66.01
68077;BME280;54866;53.458;14.540;2023-05-15T07:33:20;100019.33;;;19.32;64.58
68077;BME280;54866;53.458;14.540;2023-05-15T07:35:50;100015.52;;;19.87;62.76
68077;BME280;54866;53.458;14.540;2023-05-15T07:38:20;100012.66;;;20.44;61.42
68077;BME280;54866;53.458;14.540;2023-05-15T07:40:49;100014.04;;;21.00;59.51
68077;BME280;54866;53.458;14.540;2023-05-15T07:43:19;100009.89;;;21.63;57.54
68077;BME280;54866;53.458;14.540;2023-05-15T07:45:49;100011.14;;;22.28;55.40
68077;BME280;54866;53.458;14.540;2023-05-15T07:48:19;100007.30;;;22.75;53.68
68077;BME280;54866;53.458;14.540;2023-05-15T07:50:49;99999.89;;;23.04;51.84
68077;BME280;54866;53.458;14.540;2023-05-15T07:53:19;99994.73;;;23.34;51.51
68077;BME280;54866;53.458;14.540;2023-05-15T07:55:49;99995.74;;;23.75;50.65
68077;BME280;54866;53.458;14.540;2023-05-15T07:58:19;99991.46;;;24.16;48.46
68077;BME280;54866;53.458;14.540;2023-05-15T08:00:48;99987.91;;;24.44;46.01
68077;BME280;54866;53.458;14.540;2023-05-15T08:03:18;99988.30;;;24.67;45.24
68077;BME280;54866;53.458;14.540;2023-05-15T08:05:47;99986.78;;;24.99;44.68
68077;BME280;54866;53.458;14.540;2023-05-15T08:08:17;99982.32;;;25.32;43.40
68077;BME280;54866;53.458;14.540;2023-05-15T08:10:46;99975.48;;;25.47;41.58
68077;BME280;54866;53.458;14.540;2023-05-15T08:13:16;99975.41;;;25.58;40.54
68077;BME280;54866;53.458;14.540;2023-05-15T08:15:46;99975.66;;;25.70;39.38
68077;BME280;54866;53.458;14.540;2023-05-15T08:18:15;99968.98;;;25.75;38.68
68077;BME280;54866;53.458;14.540;2023-05-15T08:20:45;99974.98;;;25.81;38.37
68077;BME280;54866;53.458;14.540;2023-05-15T08:23:15;99965.02;;;25.91;38.09
68077;BME280;54866;53.458;14.540;2023-05-15T08:25:45;99960.30;;;26.14;37.89
68077;BME280;54866;53.458;14.540;2023-05-15T08:28:15;99956.41;;;26.24;37.68
68077;BME280;54866;53.458;14.540;2023-05-15T08:30:44;99956.71;;;26.13;35.74
68077;BME280;54866;53.458;14.540;2023-05-15T08:33:14;99960.05;;;25.63;37.02
68077;BME280;54866;53.458;14.540;2023-05-15T08:35:43;99960.01;;;25.56;36.48
68077;BME280;54866;53.458;14.540;2023-05-15T08:38:13;99964.56;;;25.50;36.84
68077;BME280;54866;53.458;14.540;2023-05-15T08:40:46;99963.81;;;25.48;36.44
68077;BME280;54866;53.458;14.540;2023-05-15T08:43:19;99960.55;;;25.42;37.00
68077;BME280;54866;53.458;14.540;2023-05-15T08:45:49;99959.52;;;25.41;36.05
68077;BME280;54866;53.458;14.540;2023-05-15T08:48:20;99968.30;;;25.19;36.59
68077;BME280;54866;53.458;14.540;2023-05-15T08:50:53;99966.19;;;24.96;36.64
68077;BME280;54866;53.458;14.540;2023-05-15T08:53:24;99956.20;;;24.80;36.47
68077;BME280;54866;53.458;14.540;2023-05-15T08:55:55;99959.41;;;24.62;36.72
68077;BME280;54866;53.458;14.540;2023-05-15T08:58:25;99961.73;;;24.22;36.89
68077;BME280;54866;53.458;14.540;2023-05-15T09:00:55;99967.54;;;23.86;37.30
68077;BME280;54866;53.458;14.540;2023-05-15T09:03:26;99967.25;;;23.65;38.24
68077;BME280;54866;53.458;14.540;2023-05-15T09:05:56;99962.50;;;23.38;39.08
68077;BME280;54866;53.458;14.540;2023-05-15T09:08:28;99961.62;;;23.31;39.38
68077;BME280;54866;53.458;14.540;2023-05-15T09:11:02;99966.02;;;23.35;40.08
68077;BME280;54866;53.458;14.540;2023-05-15T09:13:32;99968.20;;;23.71;39.61
68077;BME280;54866;53.458;14.540;2023-05-15T09:16:02;99963.34;;;24.01;39.26
68077;BME280;54866;53.458;14.540;2023-05-15T09:18:32;99963.92;;;24.27;39.08
68077;BME280;54866;53.458;14.540;2023-05-15T09:21:22;99963.05;;;24.53;37.92
68077;BME280;54866;53.458;14.540;2023-05-15T09:23:54;99957.40;;;24.60;36.95
68077;BME280;54866;53.458;14.540;2023-05-15T09:26:23;99958.14;;;24.41;36.87
68077;BME280;54866;53.458;14.540;2023-05-15T09:29:02;99953.75;;;24.12;36.71
68077;BME280;54866;53.458;14.540;2023-05-15T09:31:32;99950.77;;;23.85;36.93
68077;BME280;54866;53.458;14.540;2023-05-15T09:34:02;99946.53;;;23.53;36.67
68077;BME280;54866;53.458;14.540;2023-05-15T09:36:33;99946.17;;;23.17;37.49
68077;BME280;54866;53.458;14.540;2023-05-15T09:39:03;99949.89;;;22.97;37.90
68077;BME280;54866;53.458;14.540;2023-05-15T09:41:34;99947.40;;;22.70;37.96
68077;BME280;54866;53.458;14.540;2023-05-15T09:44:19;99943.38;;;22.55;38.27
68077;BME280;54866;53.458;14.540;2023-05-15T09:46:50;99940.82;;;22.46;38.32
68077;BME280;54866;53.458;14.540;2023-05-15T09:49:20;99943.02;;;22.35;38.78
68077;BME280;54866;53.458;14.540;2023-05-15T09:51:50;99943.09;;;22.18;39.64
68077;BME280;54866;53.458;14.540;2023-05-15T09:54:20;99944.26;;;22.17;39.99
68077;BME280;54866;53.458;14.540;2023-05-15T09:56:51;99943.02;;;22.17;40.61
68077;BME280;54866;53.458;14.540;2023-05-15T09:59:21;99937.01;;;22.46;40.69
68077;BME280;54866;53.458;14.540;2023-05-15T10:01:51;99935.98;;;22.86;40.89
68077;BME280;54866;53.458;14.540;2023-05-15T10:04:21;99930.16;;;23.02;40.44
68077;BME280;54866;53.458;14.540;2023-05-15T10:06:50;99923.27;;;23.18;40.64
68077;BME280;54866;53.458;14.540;2023-05-15T10:09:20;99920.50;;;23.48;40.31
68077;BME280;54866;53.458;14.540;2023-05-15T10:11:51;99918.30;;;23.41;40.55
68077;BME280;54866;53.458;14.540;2023-05-15T10:14:22;99912.48;;;23.07;40.67
68077;BME280;54866;53.458;14.540;2023-05-15T10:16:52;99911.56;;;22.61;40.81
68077;BME280;54866;53.458;14.540;2023-05-15T10:19:25;99912.35;;;22.24;41.98
68077;BME280;54866;53.458;14.540;2023-05-15T10:21:55;99920.73;;;21.93;42.45
68077;BME280;54866;53.458;14.540;2023-05-15T10:24:29;99920.21;;;21.55;43.17
68077;BME280;54866;53.458;14.540;2023-05-15T10:26:59;99917.80;;;21.27;44.07
68077;BME280;54866;53.458;14.540;2023-05-15T10:29:30;99919.98;;;21.03;45.26
68077;BME280;54866;53.458;14.540;2023-05-15T10:32:01;99923.06;;;20.80;46.93
68077;BME280;54866;53.458;14.540;2023-05-15T10:34:32;99925.91;;;20.60;46.78
68077;BME280;54866;53.458;14.540;2023-05-15T10:37:03;99926.59;;;20.47;47.01
68077;BME280;54866;53.458;14.540;2023-05-15T10:39:35;99926.03;;;20.35;47.67
68077;BME280;54866;53.458;14.540;2023-05-15T10:42:08;99927.59;;;20.20;49.06
68077;BME280;54866;53.458;14.540;2023-05-15T10:44:38;99924.49;;;20.09;50.45
68077;BME280;54866;53.458;14.540;2023-05-15T10:47:08;99921.13;;;19.96;50.60
68077;BME280;54866;53.458;14.540;2023-05-15T10:49:39;99918.58;;;19.97;50.66
68077;BME280;54866;53.458;14.540;2023-05-15T10:52:09;99921.46;;;20.16;51.04
68077;BME280;54866;53.458;14.540;2023-05-15T10:54:39;99918.38;;;20.43;51.15
68077;BME280;54866;53.458;14.540;2023-05-15T10:57:08;99922.93;;;20.78;51.30
68077;BME280;54866;53.458;14.540;2023-05-15T10:59:38;99916.30;;;21.01;51.38
68077;BME280;54866;53.458;14.540;2023-05-15T11:02:22;99910.60;;;21.26;51.04
68077;BME280;54866;53.458;14.540;2023-05-15T11:04:54;99902.10;;;21.46;50.66
68077;BME280;54866;53.458;14.540;2023-05-15T11:07:24;99896.93;;;21.69;49.89
68077;BME280;54866;53.458;14.540;2023-05-15T11:09:55;99889.45;;;21.66;48.99
68077;BME280;54866;53.458;14.540;2023-05-15T11:12:25;99894.29;;;21.51;47.92
68077;BME280;54866;53.458;14.540;2023-05-15T11:15:21;99894.39;;;21.28;47.63
68077;BME280;54866;53.458;14.540;2023-05-15T11:18:07;99896.09;;;20.97;47.84
68077;BME280;54866;53.458;14.540;2023-05-15T11:20:40;99892.70;;;20.57;46.64
68077;BME280;54866;53.458;14.540;2023-05-15T11:23:11;99887.45;;;20.26;45.69
68077;BME280;54866;53.458;14.540;2023-05-15T11:25:41;99886.95;;;20.04;45.73
68077;BME280;54866;53.458;14.540;2023-05-15T11:28:21;99888.30;;;19.60;44.98
68077;BME280;54866;53.458;14.540;2023-05-15T11:30:56;99895.55;;;18.83;46.70
68077;BME280;54866;53.458;14.540;2023-05-15T11:33:29;99904.77;;;18.19;49.01
68077;BME280;54866;53.458;14.540;2023-05-15T11:36:00;99913.52;;;17.61;51.98
68077;BME280;54866;53.458;14.540;2023-05-15T11:38:38;99917.64;;;17.15;54.91
68077;BME280;54866;53.458;14.540;2023-05-15T11:41:19;99917.39;;;16.72;57.30
68077;BME280;54866;53.458;14.540;2023-05-15T11:43:54;99916.27;;;16.32;60.06
68077;BME280;54866;53.458;14.540;2023-05-15T11:46:25;99912.20;;;16.09;59.91
68077;BME280;54866;53.458;14.540;2023-05-15T11:48:55;99912.66;;;15.97;60.71
68077;BME280;54866;53.458;14.540;2023-05-15T11:51:27;99907.98;;;15.95;61.31
68077;BME280;54866;53.458;14.540;2023-05-15T11:53:57;99901.44;;;16.02;62.82
68077;BME280;54866;53.458;14.540;2023-05-15T11:56:28;99896.02;;;16.12;63.35
68077;BME280;54866;53.458;14.540;2023-05-15T11:58:59;99894.12;;;16.24;64.45
68077;BME280;54866;53.458;14.540;2023-05-15T12:01:39;99888.10;;;16.37;65.07
68077;BME280;54866;53.458;14.540;2023-05-15T12:04:18;99885.60;;;16.57;66.16
68077;BME280;54866;53.458;14.540;2023-05-15T12:06:48;99885.00;;;16.86;66.25
68077;BME280;54866;53.458;14.540;2023-05-15T12:09:18;99879.40;;;17.21;66.70
68077;BME280;54866;53.458;14.540;2023-05-15T12:11:51;99875.21;;;17.56;66.71
68077;BME280;54866;53.458;14.540;2023-05-15T12:14:28;99867.45;;;17.88;66.93
68077;BME280;54866;53.458;14.540;2023-05-15T12:17:01;99873.30;;;18.17;64.26
68077;BME280;54866;53.458;14.540;2023-05-15T12:19:31;99870.52;;;18.45;62.94
68077;BME280;54866;53.458;14.540;2023-05-15T12:22:04;99872.11;;;18.76;61.38
68077;BME280;54866;53.458;14.540;2023-05-15T12:24:38;99874.27;;;18.93;57.61
68077;BME280;54866;53.458;14.540;2023-05-15T12:27:07;99878.20;;;19.10;56.40
68077;BME280;54866;53.458;14.540;2023-05-15T12:29:37;99870.38;;;19.17;54.68
68077;BME280;54866;53.458;14.540;2023-05-15T12:32:09;99866.27;;;19.20;52.62
68077;BME280;54866;53.458;14.540;2023-05-15T12:34:39;99867.54;;;19.18;52.52
68077;BME280;54866;53.458;14.540;2023-05-15T12:37:12;99868.44;;;19.18;51.97
68077;BME280;54866;53.458;14.540;2023-05-15T12:39:49;99862.59;;;19.19;51.63
68077;BME280;54866;53.458;14.540;2023-05-15T12:42:19;99862.15;;;19.14;51.05
68077;BME280;54866;53.458;14.540;2023-05-15T12:44:54;99865.37;;;19.13;50.83
68077;BME280;54866;53.458;14.540;2023-05-15T12:47:25;99857.81;;;19.10;50.76
68077;BME280;54866;53.458;14.540;2023-05-15T12:49:57;99859.45;;;19.14;50.95
68077;BME280;54866;53.458;14.540;2023-05-15T12:52:31;99855.02;;;19.19;50.19
68077;BME280;54866;53.458;14.540;2023-05-15T12:55:01;99853.33;;;19.20;49.65
68077;BME280;54866;53.458;14.540;2023-05-15T12:57:31;99850.56;;;19.19;49.77
68077;BME280;54866;53.458;14.540;2023-05-15T13:00:03;99846.89;;;19.28;50.49
68077;BME280;54866;53.458;14.540;2023-05-15T13:02:35;99852.73;;;19.28;49.97